createdAt,value
2022-08-25T00:00:31.823Z,52.94
2022-08-25T00:01:32.315Z,52.84
2022-08-25T00:02:31.824Z,52.84
2022-08-25T00:03:36.002Z,53.05
2022-08-25T00:04:31.746Z,53.05
2022-08-25T00:05:33.335Z,53.77
2022-08-25T00:06:31.734Z,53.67
2022-08-25T00:07:31.719Z,53.57
2022-08-25T00:08:31.686Z,53.67
2022-08-25T00:09:31.701Z,53.47
2022-08-25T00:10:31.657Z,53.47
2022-08-25T00:11:31.688Z,53.67
2022-08-25T00:12:31.633Z,53.87
2022-08-25T00:13:31.645Z,53.97
2022-08-25T00:14:31.613Z,53.67
2022-08-25T00:15:31.679Z,54.17
2022-08-25T00:16:31.643Z,54.17
2022-08-25T00:17:31.602Z,54.77
2022-08-25T00:18:31.559Z,54.70
2022-08-25T00:19:31.561Z,55.20
2022-08-25T00:20:31.530Z,55.10
2022-08-25T00:21:31.531Z,55.20
2022-08-25T00:22:31.541Z,55.60
2022-08-25T00:23:31.504Z,55.30
2022-08-25T00:24:31.481Z,55.20
2022-08-25T00:25:31.486Z,55.63
2022-08-25T00:26:31.449Z,55.63
2022-08-25T00:27:31.496Z,55.93
2022-08-25T00:28:31.430Z,55.93
2022-08-25T00:29:31.438Z,56.54
2022-08-25T00:30:31.418Z,56.36
2022-08-25T00:31:38.231Z,56.86
2022-08-25T00:32:31.402Z,56.36
2022-08-25T00:33:31.397Z,56.34
2022-08-25T00:34:31.357Z,56.23
2022-08-25T00:35:31.353Z,55.93
2022-08-25T00:36:31.319Z,55.93
2022-08-25T00:37:31.324Z,56.23
2022-08-25T00:38:31.323Z,56.03
2022-08-25T00:39:31.300Z,56.23
2022-08-25T00:40:31.348Z,56.43
2022-08-25T00:41:31.297Z,56.74
2022-08-25T00:42:31.254Z,56.54
2022-08-25T00:43:31.253Z,56.43
2022-08-25T00:44:31.243Z,56.43
2022-08-25T00:45:31.215Z,56.34
2022-08-25T00:46:31.288Z,56.54
2022-08-25T00:47:31.199Z,56.54
2022-08-25T00:48:31.168Z,56.63
2022-08-25T00:49:31.191Z,56.84
2022-08-25T00:50:31.135Z,56.84
2022-08-25T00:51:31.148Z,56.84
2022-08-25T00:52:31.127Z,57.04
2022-08-25T00:53:31.116Z,57.14
2022-08-25T00:54:31.085Z,57.24
2022-08-25T00:55:31.117Z,57.24
2022-08-25T00:56:31.062Z,57.17
2022-08-25T00:57:34.580Z,57.77
2022-08-25T00:58:31.033Z,58.17
2022-08-25T00:59:31.032Z,58.50
2022-08-25T01:00:31.042Z,58.70
2022-08-25T01:01:31.043Z,58.80
2022-08-25T01:02:31.053Z,58.90
2022-08-25T01:03:33.129Z,59.53
2022-08-25T01:04:30.957Z,59.33
2022-08-25T01:05:30.970Z,59.53
2022-08-25T01:06:30.972Z,60.16
2022-08-25T01:07:30.961Z,60.27
2022-08-25T01:08:30.902Z,60.36
2022-08-25T01:09:30.904Z,60.36
2022-08-25T01:10:30.884Z,60.47
2022-08-25T01:11:30.919Z,60.24
2022-08-25T01:12:30.852Z,60.27
2022-08-25T01:13:30.854Z,60.27
2022-08-25T01:14:30.822Z,60.77
2022-08-25T01:15:30.872Z,60.36
2022-08-25T01:16:30.804Z,60.57
2022-08-25T01:17:30.840Z,61.17
2022-08-25T01:18:30.772Z,60.57
2022-08-25T01:19:30.813Z,60.16
2022-08-25T01:20:30.764Z,59.86
2022-08-25T01:21:30.749Z,59.96
2022-08-25T01:22:30.767Z,59.59
2022-08-25T01:23:30.717Z,60.09
2022-08-25T01:24:30.710Z,60.49
2022-08-25T01:25:30.704Z,60.49
2022-08-25T01:26:31.108Z,60.60
2022-08-25T01:27:30.683Z,60.72
2022-08-25T01:28:30.669Z,60.93
2022-08-25T01:29:30.653Z,60.89
2022-08-25T01:30:30.627Z,60.72
2022-08-25T01:31:30.631Z,60.83
2022-08-25T01:32:30.585Z,60.83
2022-08-25T01:33:30.636Z,61.33
2022-08-25T01:34:30.586Z,61.36
2022-08-25T01:35:30.567Z,61.76
2022-08-25T01:36:30.539Z,61.66
2022-08-25T01:37:30.533Z,62.29
2022-08-25T01:38:30.521Z,62.29
2022-08-25T01:39:30.539Z,62.49
2022-08-25T01:40:30.519Z,62.70
2022-08-25T01:41:30.489Z,63.30
2022-08-25T01:42:30.478Z,62.80
2022-08-25T01:43:30.447Z,63.10
2022-08-25T01:44:30.478Z,63.23
2022-08-25T01:45:30.427Z,63.23
2022-08-25T01:46:30.464Z,63.73
2022-08-25T01:47:30.392Z,63.53
2022-08-25T01:48:30.396Z,63.43
2022-08-25T01:49:30.370Z,63.64
2022-08-25T01:50:30.398Z,63.84
2022-08-25T01:51:30.346Z,63.73
2022-08-25T01:52:30.345Z,63.87
2022-08-25T01:53:30.326Z,63.87
2022-08-25T01:54:30.327Z,64.07
2022-08-25T01:55:30.354Z,64.37
2022-08-25T01:56:30.293Z,64.37
2022-08-25T01:57:30.264Z,64.67
2022-08-25T01:58:30.276Z,64.37
2022-08-25T01:59:30.235Z,64.58
2022-08-25T02:00:30.261Z,64.27
2022-08-25T02:01:30.405Z,64.67
2022-08-25T02:02:31.658Z,64.58
2022-08-25T02:03:30.187Z,64.98
2022-08-25T02:04:30.196Z,64.78
2022-08-25T02:05:30.158Z,64.47
2022-08-25T02:06:30.268Z,64.67
2022-08-25T02:07:30.136Z,64.47
2022-08-25T02:08:30.136Z,63.96
2022-08-25T02:09:30.125Z,63.76
2022-08-25T02:10:30.106Z,63.84
2022-08-25T02:11:30.080Z,63.64
2022-08-25T02:12:30.104Z,63.53
2022-08-25T02:13:31.603Z,63.23
2022-08-25T02:14:30.056Z,63.23
2022-08-25T02:15:30.031Z,63.53
2022-08-25T02:16:30.087Z,63.23
2022-08-25T02:17:30.041Z,63.53
2022-08-25T02:18:30.006Z,63.33
2022-08-25T02:19:29.992Z,63.67
2022-08-25T02:20:29.978Z,64.47
2022-08-25T02:21:29.961Z,63.96
2022-08-25T02:22:29.961Z,64.58
2022-08-25T02:23:29.957Z,63.76
2022-08-25T02:24:29.922Z,64.17
2022-08-25T02:25:29.915Z,64.50
2022-08-25T02:26:29.900Z,64.90
2022-08-25T02:27:29.891Z,65.11
2022-08-25T02:28:29.922Z,65.41
2022-08-25T02:29:29.841Z,65.75
2022-08-25T02:30:29.889Z,65.64
2022-08-25T02:31:29.817Z,65.75
2022-08-25T02:32:29.823Z,66.05
2022-08-25T02:33:29.787Z,66.25
2022-08-25T02:34:29.831Z,66.48
2022-08-25T02:35:29.764Z,66.58
2022-08-25T02:36:29.767Z,66.48
2022-08-25T02:37:29.740Z,66.78
2022-08-25T02:38:29.750Z,66.75
2022-08-25T02:39:29.759Z,66.45
2022-08-25T02:40:29.789Z,66.75
2022-08-25T02:41:31.306Z,66.65
2022-08-25T02:42:29.695Z,66.75
2022-08-25T02:43:29.663Z,66.35
2022-08-25T02:44:29.669Z,66.65
2022-08-25T02:45:29.669Z,66.12
2022-08-25T02:46:29.709Z,66.12
2022-08-25T02:47:29.607Z,66.02
2022-08-25T02:48:29.651Z,65.81
2022-08-25T02:49:29.583Z,65.71
2022-08-25T02:50:29.630Z,65.71
2022-08-25T02:51:29.570Z,65.92
2022-08-25T02:52:29.558Z,66.25
2022-08-25T02:53:29.537Z,66.55
2022-08-25T02:54:29.542Z,66.65
2022-08-25T02:55:29.511Z,66.45
2022-08-25T02:56:29.533Z,66.75
2022-08-25T02:57:29.488Z,66.86
2022-08-25T02:58:29.494Z,67.26
2022-08-25T02:59:29.450Z,67.06
2022-08-25T03:00:29.459Z,67.39
2022-08-25T03:01:29.543Z,68.00
2022-08-25T03:02:29.444Z,68.00
2022-08-25T03:03:29.414Z,68.20
2022-08-25T03:04:29.505Z,68.63
2022-08-25T03:05:29.379Z,68.30
2022-08-25T03:06:29.379Z,68.60
2022-08-25T03:07:29.388Z,68.51
2022-08-25T03:08:29.355Z,68.40
2022-08-25T03:09:29.323Z,68.51
2022-08-25T03:10:29.327Z,68.91
2022-08-25T03:11:29.319Z,68.74
2022-08-25T03:12:29.335Z,68.43
2022-08-25T03:13:29.290Z,68.54
2022-08-25T03:14:29.273Z,68.84
2022-08-25T03:15:30.589Z,68.63
2022-08-25T03:16:29.267Z,68.91
2022-08-25T03:17:29.222Z,68.60
2022-08-25T03:18:29.246Z,68.60
2022-08-25T03:19:29.201Z,68.30
2022-08-25T03:20:29.216Z,68.30
2022-08-25T03:21:29.169Z,68.20
2022-08-25T03:22:29.171Z,68.51
2022-08-25T03:23:29.187Z,68.60
2022-08-25T03:24:29.150Z,68.51
2022-08-25T03:25:29.133Z,68.60
2022-08-25T03:26:29.121Z,68.40
2022-08-25T03:27:29.096Z,68.40
2022-08-25T03:28:30.163Z,68.71
2022-08-25T03:29:29.098Z,68.84
2022-08-25T03:30:29.067Z,69.34
2022-08-25T03:31:29.076Z,69.78
2022-08-25T03:32:29.044Z,70.18
2022-08-25T03:33:29.015Z,70.18
2022-08-25T03:34:29.049Z,70.18
2022-08-25T03:35:28.990Z,70.73
2022-08-25T03:36:28.987Z,70.62
2022-08-25T03:37:28.966Z,71.37
2022-08-25T03:38:28.960Z,71.97
2022-08-25T03:39:28.936Z,72.17
2022-08-25T03:40:29.020Z,72.68
2022-08-25T03:41:29.218Z,72.61
2022-08-25T03:42:28.912Z,73.53
2022-08-25T03:43:28.894Z,73.32
2022-08-25T03:44:28.887Z,74.24
2022-08-25T03:45:28.989Z,74.04
2022-08-25T03:46:28.866Z,74.33
2022-08-25T03:47:28.828Z,74.44
2022-08-25T03:48:28.829Z,74.04
2022-08-25T03:49:28.809Z,74.24
2022-08-25T03:50:28.802Z,74.33
2022-08-25T03:51:28.801Z,74.24
2022-08-25T03:52:28.805Z,74.64
2022-08-25T03:53:28.752Z,74.54
2022-08-25T03:54:28.759Z,74.33
2022-08-25T03:55:28.760Z,74.54
2022-08-25T03:56:28.768Z,74.33
2022-08-25T03:57:28.703Z,74.20
2022-08-25T03:58:28.710Z,74.20
2022-08-25T03:59:28.676Z,74.10
2022-08-25T04:00:28.672Z,74.10
2022-08-25T04:01:28.814Z,73.56
2022-08-25T04:02:28.660Z,73.05
2022-08-25T04:03:28.584Z,72.55
2022-08-25T04:04:28.566Z,71.91
2022-08-25T04:05:28.539Z,71.80
2022-08-25T04:06:28.549Z,71.40
2022-08-25T04:07:28.572Z,71.20
2022-08-25T04:08:28.518Z,71.06
2022-08-25T04:09:28.487Z,71.00
2022-08-25T04:10:28.488Z,71.20
2022-08-25T04:11:28.468Z,71.30
2022-08-25T04:12:28.458Z,71.30
2022-08-25T04:13:28.489Z,71.30
2022-08-25T04:14:28.437Z,71.30
2022-08-25T04:15:30.084Z,71.30
2022-08-25T04:16:28.460Z,71.60
2022-08-25T04:17:28.385Z,71.30
2022-08-25T04:18:28.418Z,71.70
2022-08-25T04:19:28.359Z,71.60
2022-08-25T04:20:28.358Z,71.73
2022-08-25T04:21:28.333Z,71.80
2022-08-25T04:22:29.856Z,71.40
2022-08-25T04:23:28.307Z,71.60
2022-08-25T04:24:28.343Z,71.30
2022-08-25T04:25:28.289Z,71.40
2022-08-25T04:26:28.308Z,71.30
2022-08-25T04:27:28.252Z,71.09
2022-08-25T04:28:28.272Z,71.00
2022-08-25T04:29:28.280Z,70.89
2022-08-25T04:30:28.238Z,71.60
2022-08-25T04:31:28.276Z,71.94
2022-08-25T04:32:28.210Z,72.04
2022-08-25T04:33:28.218Z,72.34
2022-08-25T04:34:30.767Z,72.04
2022-08-25T04:35:28.194Z,72.14
2022-08-25T04:36:28.164Z,72.44
2022-08-25T04:37:28.122Z,72.44
2022-08-25T04:38:28.128Z,72.65
2022-08-25T04:39:28.112Z,72.88
2022-08-25T04:40:28.933Z,72.88
2022-08-25T04:41:28.071Z,72.78
2022-08-25T04:42:28.090Z,73.09
2022-08-25T04:43:28.044Z,72.88
2022-08-25T04:44:28.068Z,72.99
2022-08-25T04:45:28.067Z,73.09
2022-08-25T04:46:28.049Z,73.19
2022-08-25T04:47:28.174Z,73.39
2022-08-25T04:48:28.001Z,73.36
2022-08-25T04:49:27.972Z,73.05
2022-08-25T04:50:27.968Z,73.02
2022-08-25T04:51:27.970Z,72.41
2022-08-25T04:52:27.936Z,71.77
2022-08-25T04:53:27.923Z,71.67
2022-08-25T04:54:27.912Z,71.37
2022-08-25T04:55:27.885Z,71.13
2022-08-25T04:56:27.894Z,70.73
2022-08-25T04:57:27.910Z,70.93
2022-08-25T04:58:27.868Z,70.83
2022-08-25T04:59:29.364Z,70.53
2022-08-25T05:00:27.833Z,70.53
2022-08-25T05:01:27.830Z,70.29
2022-08-25T05:02:27.808Z,69.98
2022-08-25T05:03:27.816Z,69.78
2022-08-25T05:04:29.063Z,69.68
2022-08-25T05:05:27.752Z,69.58
2022-08-25T05:06:27.762Z,69.68
2022-08-25T05:07:27.733Z,69.78
2022-08-25T05:08:27.736Z,70.09
2022-08-25T05:09:27.737Z,69.89
2022-08-25T05:10:27.705Z,70.29
2022-08-25T05:11:27.683Z,70.26
2022-08-25T05:12:27.685Z,70.26
2022-08-25T05:13:27.657Z,69.82
2022-08-25T05:14:27.665Z,69.72
2022-08-25T05:15:27.675Z,69.62
2022-08-25T05:16:27.683Z,69.52
2022-08-25T05:17:27.600Z,69.68
2022-08-25T05:18:27.599Z,69.38
2022-08-25T05:19:27.607Z,69.48
2022-08-25T05:20:27.575Z,69.28
2022-08-25T05:21:27.599Z,69.05
2022-08-25T05:22:27.545Z,68.95
2022-08-25T05:23:27.523Z,69.05
2022-08-25T05:24:27.526Z,69.15
2022-08-25T05:25:27.496Z,68.81
2022-08-25T05:26:27.504Z,68.61
2022-08-25T05:27:27.515Z,68.51
2022-08-25T05:28:27.473Z,68.31
2022-08-25T05:29:27.450Z,67.88
2022-08-25T05:30:27.479Z,67.47
2022-08-25T05:31:27.459Z,67.17
2022-08-25T05:32:27.415Z,67.03
2022-08-25T05:33:27.426Z,67.03
2022-08-25T05:34:27.414Z,66.74
2022-08-25T05:35:27.380Z,66.30
2022-08-25T05:36:27.373Z,66.00
2022-08-25T05:37:27.337Z,65.67
2022-08-25T05:38:27.362Z,65.23
2022-08-25T05:39:27.355Z,64.53
2022-08-25T05:40:27.363Z,63.90
2022-08-25T05:41:27.293Z,63.36
2022-08-25T05:42:27.297Z,62.96
2022-08-25T05:43:27.267Z,62.86
2022-08-25T05:44:27.265Z,62.73
2022-08-25T05:45:27.322Z,62.63
2022-08-25T05:46:27.244Z,62.73
2022-08-25T05:47:27.216Z,62.53
2022-08-25T05:48:27.211Z,62.20
2022-08-25T05:49:27.199Z,62.00
2022-08-25T05:50:27.198Z,61.80
2022-08-25T05:51:27.195Z,61.70
2022-08-25T05:52:27.167Z,62.00
2022-08-25T05:53:27.147Z,61.90
2022-08-25T05:54:27.157Z,61.67
2022-08-25T05:55:27.107Z,61.57
2022-08-25T05:56:27.105Z,61.36
2022-08-25T05:57:27.122Z,61.14
2022-08-25T05:58:27.071Z,61.14
2022-08-25T05:59:27.067Z,61.14
2022-08-25T06:00:27.040Z,60.94
2022-08-25T06:01:27.122Z,61.04
2022-08-25T06:02:27.010Z,61.04
2022-08-25T06:03:27.066Z,60.94
2022-08-25T06:04:26.987Z,60.94
2022-08-25T06:05:26.989Z,61.04
2022-08-25T06:06:26.965Z,61.34
2022-08-25T06:07:27.069Z,61.87
2022-08-25T06:08:26.946Z,62.50
2022-08-25T06:09:26.973Z,63.10
2022-08-25T06:10:27.046Z,63.64
2022-08-25T06:11:26.912Z,63.93
2022-08-25T06:12:26.888Z,64.17
2022-08-25T06:13:28.815Z,64.37
2022-08-25T06:14:26.859Z,64.47
2022-08-25T06:15:26.895Z,64.67
2022-08-25T06:16:26.891Z,64.57
2022-08-25T06:17:26.831Z,64.77
2022-08-25T06:18:26.807Z,64.87
2022-08-25T06:19:26.805Z,64.97
2022-08-25T06:20:26.838Z,65.07
2022-08-25T06:21:26.907Z,65.07
2022-08-25T06:22:26.747Z,65.17
2022-08-25T06:23:26.751Z,65.17
2022-08-25T06:24:26.724Z,64.97
2022-08-25T06:25:26.726Z,65.04
2022-08-25T06:26:26.707Z,64.84
2022-08-25T06:27:26.730Z,64.84
2022-08-25T06:28:26.683Z,64.74
2022-08-25T06:29:26.671Z,64.43
2022-08-25T06:30:28.840Z,64.54
2022-08-25T06:31:26.684Z,64.51
2022-08-25T06:32:26.636Z,64.21
2022-08-25T06:33:26.668Z,64.11
2022-08-25T06:34:26.621Z,64.11
2022-08-25T06:35:26.601Z,64.01
2022-08-25T06:36:26.571Z,63.87
2022-08-25T06:37:26.612Z,63.78
2022-08-25T06:38:26.555Z,63.67
2022-08-25T06:39:26.590Z,63.47
2022-08-25T06:40:26.689Z,63.57
2022-08-25T06:41:37.024Z,63.57
2022-08-25T06:42:26.505Z,63.57
2022-08-25T06:43:26.496Z,63.45
2022-08-25T06:44:26.466Z,63.45
2022-08-25T06:45:26.511Z,63.54
2022-08-25T06:46:36.578Z,63.54
2022-08-25T06:47:26.525Z,63.34
2022-08-25T06:48:26.420Z,63.31
2022-08-25T06:49:26.428Z,63.11
2022-08-25T06:50:26.406Z,63.01
2022-08-25T06:51:26.428Z,62.92
2022-08-25T06:52:29.090Z,63.11
2022-08-25T06:53:26.367Z,63.21
2022-08-25T06:54:26.347Z,63.01
2022-08-25T06:55:26.342Z,62.88
2022-08-25T06:56:26.690Z,62.68
2022-08-25T06:57:26.505Z,62.88
2022-08-25T06:58:26.296Z,63.08
2022-08-25T06:59:26.302Z,62.78
2022-08-25T07:00:30.647Z,62.88
2022-08-25T07:01:26.425Z,62.98
2022-08-25T07:02:26.326Z,62.35
2022-08-25T07:04:23.018Z,61.09
2022-08-25T07:05:33.515Z,60.57
2022-08-25T07:06:23.981Z,60.27
2022-08-25T07:07:23.980Z,59.94
2022-08-25T07:08:23.944Z,59.64
2022-08-25T07:09:23.994Z,59.44
2022-08-25T07:10:24.002Z,59.31
2022-08-25T07:11:23.950Z,59.21
2022-08-25T07:12:23.911Z,59.11
2022-08-25T07:13:23.897Z,58.98
2022-08-25T07:14:23.874Z,58.78
2022-08-25T07:15:23.913Z,58.55
2022-08-25T07:16:23.867Z,58.45
2022-08-25T07:17:23.902Z,58.45
2022-08-25T07:18:23.831Z,58.25
2022-08-25T07:19:23.820Z,58.15
2022-08-25T07:21:27.885Z,57.93
2022-08-25T07:22:23.782Z,57.93
2022-08-25T07:23:23.773Z,57.80
2022-08-25T07:24:23.745Z,57.60
2022-08-25T07:25:23.745Z,57.90
2022-08-25T07:26:39.315Z,57.80
2022-08-25T07:27:23.759Z,57.28
2022-08-25T07:28:23.686Z,57.17
2022-08-25T07:29:32.064Z,56.98
2022-08-25T07:30:23.753Z,56.98
2022-08-25T07:31:28.199Z,56.85
2022-08-25T07:32:23.641Z,56.55
2022-08-25T07:33:23.667Z,56.45
2022-08-25T07:34:23.603Z,56.15
2022-08-25T07:35:24.082Z,56.23
2022-08-25T07:36:23.579Z,56.02
2022-08-25T07:37:48.768Z,56.30
2022-08-25T07:38:23.569Z,55.70
2022-08-25T07:39:23.593Z,55.20
2022-08-25T07:40:23.680Z,54.97
2022-08-25T07:41:23.526Z,54.78
2022-08-25T07:42:23.498Z,54.35
2022-08-25T07:43:23.501Z,54.06
2022-08-25T07:44:23.476Z,54.18
2022-08-25T07:45:23.527Z,54.38
2022-08-25T07:46:23.476Z,54.18
2022-08-25T07:47:23.450Z,54.06
2022-08-25T07:48:23.427Z,53.86
2022-08-25T07:49:23.772Z,53.76
2022-08-25T07:50:23.395Z,53.56
2022-08-25T07:51:23.447Z,53.56
2022-08-25T07:52:23.360Z,53.33
2022-08-25T07:53:23.364Z,53.44
2022-08-25T07:54:23.339Z,53.33
2022-08-25T07:55:23.353Z,53.01
2022-08-25T07:56:23.315Z,52.91
2022-08-25T07:57:23.352Z,52.91
2022-08-25T07:58:23.302Z,53.21
2022-08-25T07:59:23.287Z,52.59
2022-08-25T08:00:24.469Z,52.09
2022-08-25T08:01:23.351Z,52.07
2022-08-25T08:02:24.781Z,51.67
2022-08-25T08:03:44.807Z,51.67
2022-08-25T08:04:23.214Z,51.67
2022-08-25T08:05:23.928Z,51.67
2022-08-25T08:06:23.181Z,51.77
2022-08-25T08:07:23.203Z,51.57
2022-08-25T08:08:23.151Z,51.45
2022-08-25T08:09:23.198Z,50.95
2022-08-25T08:10:47.901Z,51.15
2022-08-25T08:11:23.139Z,51.05
2022-08-25T08:12:23.106Z,50.93
2022-08-25T08:13:23.138Z,50.83
2022-08-25T08:14:23.077Z,50.73
2022-08-25T08:15:23.111Z,50.83
2022-08-25T08:16:23.121Z,51.03
2022-08-25T08:17:23.052Z,51.03
2022-08-25T08:18:23.028Z,50.71
2022-08-25T08:19:23.214Z,50.41
2022-08-25T08:20:23.227Z,50.41
2022-08-25T08:21:23.037Z,50.41
2022-08-25T08:22:22.977Z,50.51
2022-08-25T08:23:22.978Z,50.48
2022-08-25T08:24:40.835Z,50.09
2022-08-25T08:25:27.329Z,49.99
2022-08-25T08:26:31.717Z,50.09
2022-08-25T08:27:22.966Z,50.18
2022-08-25T08:28:22.904Z,50.29
2022-08-25T08:29:22.910Z,50.18
2022-08-25T08:30:25.997Z,50.48
2022-08-25T08:31:22.910Z,50.18
2022-08-25T08:32:23.143Z,50.38
2022-08-25T08:33:22.892Z,50.60
2022-08-25T08:34:24.850Z,50.93
2022-08-25T08:35:22.816Z,51.00
2022-08-25T08:36:22.794Z,50.81
2022-08-25T08:37:22.973Z,50.83
2022-08-25T08:38:27.142Z,50.93
2022-08-25T08:39:22.811Z,50.93
2022-08-25T08:40:22.769Z,50.93
2022-08-25T08:41:23.030Z,50.60
2022-08-25T08:42:22.717Z,50.60
2022-08-25T08:43:22.714Z,50.71
2022-08-25T08:44:22.681Z,50.58
2022-08-25T08:45:22.730Z,50.29
2022-08-25T08:46:22.763Z,50.29
2022-08-25T08:47:22.663Z,50.18
2022-08-25T08:48:22.658Z,50.29
2022-08-25T08:49:22.638Z,50.09
2022-08-25T08:50:28.010Z,49.89
2022-08-25T08:51:22.927Z,50.51
2022-08-25T08:52:22.582Z,50.38
2022-08-25T08:53:22.601Z,50.21
2022-08-25T08:54:23.150Z,50.51
2022-08-25T08:55:22.555Z,50.58
2022-08-25T08:56:22.529Z,50.38
2022-08-25T08:57:22.581Z,49.87
2022-08-25T08:58:26.107Z,49.66
2022-08-25T08:59:22.508Z,49.87
2022-08-25T09:00:22.517Z,49.47
2022-08-25T09:01:22.536Z,49.05
2022-08-25T09:02:50.273Z,48.95
2022-08-25T09:03:22.618Z,48.46
2022-08-25T09:04:24.387Z,48.55
2022-08-25T09:05:22.435Z,48.46
2022-08-25T09:06:22.403Z,48.46
2022-08-25T09:07:22.417Z,48.46
2022-08-25T09:08:22.388Z,48.24
2022-08-25T09:09:22.428Z,48.43
2022-08-25T09:10:22.350Z,47.84
2022-08-25T09:11:22.355Z,47.74
2022-08-25T09:12:22.339Z,46.93
2022-08-25T09:13:26.048Z,46.63
2022-08-25T09:14:22.327Z,46.53
2022-08-25T09:15:22.345Z,46.44
2022-08-25T09:16:23.350Z,46.53
2022-08-25T09:17:22.318Z,45.54
2022-08-25T09:18:22.253Z,45.45
2022-08-25T09:19:23.454Z,45.54
2022-08-25T09:20:22.269Z,45.86
2022-08-25T09:21:22.250Z,46.23
2022-08-25T09:22:35.116Z,45.25
2022-08-25T09:23:22.207Z,44.26
2022-08-25T09:24:22.181Z,44.75
2022-08-25T09:25:39.796Z,44.95
2022-08-25T09:26:22.214Z,45.15
2022-08-25T09:27:22.167Z,45.25
2022-08-25T09:28:22.115Z,45.32
2022-08-25T09:29:22.137Z,45.30
2022-08-25T09:30:22.106Z,45.30
2022-08-25T09:31:24.359Z,44.64
2022-08-25T09:32:24.180Z,44.73
2022-08-25T09:33:22.204Z,44.51
2022-08-25T09:34:22.049Z,44.32
2022-08-25T09:35:22.042Z,44.54
2022-08-25T09:36:22.061Z,44.61
2022-08-25T09:37:22.019Z,44.83
2022-08-25T09:38:22.021Z,44.83
2022-08-25T09:39:22.021Z,44.32
2022-08-25T09:40:22.006Z,44.32
2022-08-25T09:41:21.967Z,44.61
2022-08-25T09:42:24.008Z,44.29
2022-08-25T09:43:21.911Z,43.19
2022-08-25T09:44:21.940Z,43.29
2022-08-25T09:45:21.943Z,43.21
2022-08-25T09:46:21.934Z,42.91
2022-08-25T09:47:21.863Z,43.11
2022-08-25T09:48:21.883Z,43.29
2022-08-25T09:49:21.897Z,42.28
2022-08-25T09:50:21.840Z,41.47
2022-08-25T09:51:21.865Z,40.86
2022-08-25T09:52:21.824Z,40.66
2022-08-25T09:53:21.952Z,40.64
2022-08-25T09:54:25.461Z,40.74
2022-08-25T09:55:21.813Z,40.35
2022-08-25T09:56:21.770Z,39.94
2022-08-25T09:57:21.835Z,39.84
2022-08-25T09:58:22.309Z,40.62
2022-08-25T09:59:21.700Z,39.86
2022-08-25T10:00:21.738Z,39.86
2022-08-25T10:01:22.426Z,39.95
2022-08-25T10:02:21.683Z,40.35
2022-08-25T10:03:22.743Z,40.05
2022-08-25T10:04:21.658Z,39.94
2022-08-25T10:05:23.345Z,39.64
2022-08-25T10:06:21.712Z,39.84
2022-08-25T10:07:21.609Z,40.11
2022-08-25T10:08:21.676Z,39.62
2022-08-25T10:09:21.630Z,39.50
2022-08-25T10:10:21.591Z,38.64
2022-08-25T10:11:21.621Z,39.25
2022-08-25T10:12:21.577Z,38.44
2022-08-25T10:13:22.611Z,38.05
2022-08-25T10:14:21.573Z,38.34
2022-08-25T10:15:30.080Z,38.15
2022-08-25T10:16:24.497Z,38.54
2022-08-25T10:17:21.542Z,38.42
2022-08-25T10:18:21.553Z,38.01
2022-08-25T10:19:21.496Z,37.52
2022-08-25T10:20:20.467Z,37.62
2022-08-25T10:21:21.484Z,37.72
2022-08-25T10:22:21.446Z,37.72
2022-08-25T10:23:21.443Z,38.34
2022-08-25T10:24:21.478Z,38.72
2022-08-25T10:25:21.376Z,38.42
2022-08-25T10:26:21.393Z,38.62
2022-08-25T10:27:21.406Z,38.52
2022-08-25T10:28:21.368Z,38.32
2022-08-25T10:29:21.421Z,38.54
2022-08-25T10:30:21.379Z,38.23
2022-08-25T10:31:21.392Z,38.62
2022-08-25T10:32:21.308Z,38.60
2022-08-25T10:33:21.329Z,38.82
2022-08-25T10:34:21.339Z,39.11
2022-08-25T10:35:21.264Z,38.82
2022-08-25T10:36:21.430Z,38.90
2022-08-25T10:37:21.239Z,38.39
2022-08-25T10:38:21.529Z,38.68
2022-08-25T10:39:33.914Z,38.01
2022-08-25T10:40:21.309Z,38.31
2022-08-25T10:41:21.184Z,38.52
2022-08-25T10:42:26.068Z,38.90
2022-08-25T10:43:23.830Z,38.19
2022-08-25T10:44:21.157Z,37.60
2022-08-25T10:45:21.945Z,37.62
2022-08-25T10:46:21.243Z,37.60
2022-08-25T10:47:21.117Z,37.50
2022-08-25T10:48:22.321Z,37.99
2022-08-25T10:49:21.080Z,37.60
2022-08-25T10:50:21.094Z,37.58
2022-08-25T10:51:25.278Z,37.27
2022-08-25T10:52:21.063Z,37.17
2022-08-25T10:53:21.053Z,37.17
2022-08-25T10:54:21.034Z,37.37
2022-08-25T10:55:21.005Z,37.37
2022-08-25T10:56:21.030Z,36.57
2022-08-25T10:57:21.025Z,36.47
2022-08-25T10:58:20.985Z,36.18
2022-08-25T10:59:20.950Z,36.27
2022-08-25T11:00:20.959Z,35.97
2022-08-25T11:01:20.969Z,36.51
2022-08-25T11:02:20.961Z,37.52
2022-08-25T11:03:21.062Z,37.42
2022-08-25T11:04:20.912Z,37.42
2022-08-25T11:05:24.620Z,37.32
2022-08-25T11:06:20.884Z,37.52
2022-08-25T11:07:20.855Z,37.42
2022-08-25T11:08:20.856Z,37.70
2022-08-25T11:09:20.868Z,37.19
2022-08-25T11:10:20.841Z,36.90
2022-08-25T11:11:20.807Z,37.19
2022-08-25T11:12:20.855Z,36.98
2022-08-25T11:13:20.786Z,37.07
2022-08-25T11:14:20.796Z,36.68
2022-08-25T11:15:20.845Z,36.39
2022-08-25T11:16:20.765Z,36.19
2022-08-25T11:17:20.737Z,35.89
2022-08-25T11:18:20.762Z,35.91
2022-08-25T11:19:20.754Z,36.51
2022-08-25T11:20:27.078Z,35.91
2022-08-25T11:21:22.134Z,36.01
2022-08-25T11:22:20.754Z,36.11
2022-08-25T11:23:20.659Z,36.51
2022-08-25T11:24:20.753Z,37.01
2022-08-25T11:25:21.683Z,37.01
2022-08-25T11:26:20.633Z,37.32
2022-08-25T11:27:21.625Z,37.72
2022-08-25T11:28:20.625Z,37.62
2022-08-25T11:29:20.586Z,37.40
2022-08-25T11:30:20.592Z,37.48
2022-08-25T11:31:20.577Z,37.30
2022-08-25T11:32:20.594Z,37.40
2022-08-25T11:33:20.695Z,37.70
2022-08-25T11:34:20.555Z,37.09
2022-08-25T11:35:20.533Z,36.40
2022-08-25T11:36:20.508Z,36.30
2022-08-25T11:37:20.485Z,36.09
2022-08-25T11:38:20.846Z,36.49
2022-08-25T11:39:20.495Z,36.27
2022-08-25T11:40:20.573Z,36.08
2022-08-25T11:41:20.432Z,35.27
2022-08-25T11:42:20.449Z,35.37
2022-08-25T11:43:20.414Z,35.97
2022-08-25T11:44:20.459Z,36.58
2022-08-25T11:45:20.412Z,36.68
2022-08-25T11:46:20.436Z,36.68
2022-08-25T11:47:21.617Z,35.97
2022-08-25T11:48:20.373Z,36.29
2022-08-25T11:49:20.336Z,36.60
2022-08-25T11:50:20.347Z,36.82
2022-08-25T11:51:20.355Z,36.74
2022-08-25T11:52:20.332Z,37.54
2022-08-25T11:53:23.716Z,37.84
2022-08-25T11:54:20.305Z,37.42
2022-08-25T11:55:22.939Z,37.52
2022-08-25T11:56:20.281Z,37.72
2022-08-25T11:57:20.273Z,37.93
2022-08-25T11:58:20.317Z,37.84
2022-08-25T11:59:20.222Z,37.63
2022-08-25T12:00:20.223Z,37.74
2022-08-25T12:01:20.218Z,37.54
2022-08-25T12:02:20.201Z,37.74
2022-08-25T12:03:20.220Z,37.34
2022-08-25T12:04:20.224Z,37.74
2022-08-25T12:05:20.292Z,37.42
2022-08-25T12:06:20.206Z,36.32
2022-08-25T12:07:20.137Z,36.40
2022-08-25T12:08:20.155Z,36.21
2022-08-25T12:09:20.119Z,36.30
2022-08-25T12:10:20.157Z,36.93
2022-08-25T12:11:20.075Z,37.42
2022-08-25T12:12:20.066Z,37.52
2022-08-25T12:13:20.072Z,37.63
2022-08-25T12:14:20.035Z,37.42
2022-08-25T12:15:20.042Z,37.42
2022-08-25T12:16:20.096Z,37.54
2022-08-25T12:17:19.973Z,37.74
2022-08-25T12:18:19.989Z,37.42
2022-08-25T12:19:19.962Z,37.23
2022-08-25T12:20:20.177Z,36.91
2022-08-25T12:21:19.979Z,36.62
2022-08-25T12:22:19.930Z,36.42
2022-08-25T12:23:19.986Z,36.01
2022-08-25T12:24:19.930Z,36.09
2022-08-25T12:25:19.898Z,35.70
2022-08-25T12:26:19.883Z,35.70
2022-08-25T12:27:19.903Z,35.49
2022-08-25T12:28:19.856Z,35.68
2022-08-25T12:29:21.354Z,35.49
2022-08-25T12:30:20.929Z,35.37
2022-08-25T12:31:20.029Z,35.06
2022-08-25T12:32:20.137Z,34.30
2022-08-25T12:33:19.832Z,34.18
2022-08-25T12:34:19.782Z,34.26
2022-08-25T12:35:19.800Z,34.18
2022-08-25T12:36:19.779Z,33.58
2022-08-25T12:37:19.866Z,33.38
2022-08-25T12:38:19.747Z,33.69
2022-08-25T12:39:19.755Z,33.67
2022-08-25T12:40:19.770Z,34.18
2022-08-25T12:41:19.676Z,34.69
2022-08-25T12:42:21.975Z,34.47
2022-08-25T12:43:19.872Z,34.28
2022-08-25T12:44:19.653Z,35.00
2022-08-25T12:45:19.724Z,35.52
2022-08-25T12:46:19.755Z,35.91
2022-08-25T12:47:19.601Z,36.34
2022-08-25T12:48:19.597Z,36.95
2022-08-25T12:49:19.571Z,37.46
2022-08-25T12:50:19.572Z,37.03
2022-08-25T12:51:19.664Z,37.03
2022-08-25T12:52:19.566Z,37.13
2022-08-25T12:53:19.522Z,36.63
2022-08-25T12:54:22.506Z,37.13